createdAt,value
2018-12-02T00:00:42.656Z,5.40
2018-12-02T00:03:11.200Z,5.40
2018-12-02T00:05:40.054Z,5.30
2018-12-02T00:08:08.988Z,5.30
2018-12-02T00:10:37.675Z,5.30
2018-12-02T00:13:06.324Z,5.30
2018-12-02T00:15:36.665Z,5.30
2018-12-02T00:18:07.230Z,5.20
2018-12-02T00:20:35.694Z,5.20
2018-12-02T00:23:04.286Z,5.30
2018-12-02T00:25:32.818Z,5.30
2018-12-02T00:28:01.520Z,5.40
2018-12-02T00:30:30.936Z,5.40
2018-12-02T00:32:59.560Z,5.50
2018-12-02T00:35:28.455Z,5.60
2018-12-02T00:37:58.154Z,5.60
2018-12-02T00:40:26.718Z,5.60
2018-12-02T00:42:56.287Z,5.60
2018-12-02T00:45:29.277Z,5.60
2018-12-02T00:47:57.817Z,5.60
2018-12-02T00:50:26.399Z,5.70
2018-12-02T00:52:55.987Z,5.60
2018-12-02T00:55:26.623Z,5.60
2018-12-02T00:57:55.113Z,5.50
2018-12-02T01:00:23.618Z,5.60
2018-12-02T01:02:52.302Z,5.50
2018-12-02T01:05:22.016Z,5.50
2018-12-02T01:07:50.585Z,5.50
2018-12-02T01:10:23.904Z,5.50
2018-12-02T01:12:54.583Z,5.50
2018-12-02T01:15:24.573Z,5.50
2018-12-02T01:17:53.095Z,5.40
2018-12-02T01:20:22.515Z,5.50
2018-12-02T01:22:51.041Z,5.50
2018-12-02T01:25:19.690Z,5.50
2018-12-02T01:27:48.265Z,5.40
2018-12-02T01:30:18.572Z,5.40
2018-12-02T01:32:47.124Z,5.40
2018-12-02T01:35:16.745Z,5.40
2018-12-02T01:37:45.376Z,5.50
2018-12-02T01:40:15.939Z,5.60
2018-12-02T01:42:44.407Z,5.60
2018-12-02T01:45:16.005Z,5.60
2018-12-02T01:47:44.645Z,5.60
2018-12-02T01:50:14.143Z,5.70
2018-12-02T01:52:43.266Z,5.70
2018-12-02T01:55:12.379Z,5.80
2018-12-02T01:57:40.927Z,5.80
2018-12-02T02:00:17.542Z,5.80
2018-12-02T02:02:46.752Z,5.70
2018-12-02T02:05:16.304Z,5.80
2018-12-02T02:07:44.917Z,5.80
2018-12-02T02:10:16.409Z,5.80
2018-12-02T02:12:45.001Z,5.90
2018-12-02T02:15:14.805Z,5.90
2018-12-02T02:17:43.497Z,6.00
2018-12-02T02:20:14.223Z,6.10
2018-12-02T02:22:42.893Z,6.10
2018-12-02T02:25:12.450Z,6.00
2018-12-02T02:27:41.913Z,6.00
2018-12-02T02:30:16.353Z,6.10
2018-12-02T02:32:44.935Z,6.10
2018-12-02T02:35:13.922Z,6.00
2018-12-02T02:37:42.471Z,6.10
2018-12-02T02:40:14.209Z,6.20
2018-12-02T02:42:42.870Z,6.20
2018-12-02T02:45:12.299Z,6.10
2018-12-02T02:47:40.849Z,6.10
2018-12-02T02:50:18.360Z,6.10
2018-12-02T02:52:59.043Z,6.20
2018-12-02T02:55:27.860Z,6.10
2018-12-02T02:57:56.568Z,6.10
2018-12-02T03:00:26.209Z,6.10
2018-12-02T03:02:54.811Z,6.10
2018-12-02T03:05:23.386Z,6.10
2018-12-02T03:07:51.887Z,6.00
2018-12-02T03:10:21.330Z,6.10
2018-12-02T03:12:52.524Z,6.10
2018-12-02T03:15:21.666Z,6.20
2018-12-02T03:17:50.159Z,6.10
2018-12-02T03:20:19.633Z,6.10
2018-12-02T03:22:49.158Z,6.20
2018-12-02T03:25:19.657Z,6.20
2018-12-02T03:27:48.224Z,6.20
2018-12-02T03:30:20.599Z,6.10
2018-12-02T03:32:49.065Z,6.10
2018-12-02T03:35:20.554Z,6.00
2018-12-02T03:37:49.037Z,6.00
2018-12-02T03:40:18.719Z,6.00
2018-12-02T03:42:47.259Z,5.90
2018-12-02T03:45:16.852Z,5.80
2018-12-02T03:47:45.385Z,5.80
2018-12-02T03:50:17.773Z,5.80
2018-12-02T03:52:44.130Z,5.80
2018-12-02T03:55:12.739Z,5.80
2018-12-02T03:57:41.270Z,5.80
2018-12-02T04:00:25.033Z,5.80
2018-12-02T04:02:54.694Z,5.80
2018-12-02T04:07:56.797Z,5.70
2018-12-02T04:10:25.308Z,5.60
2018-12-02T04:12:53.913Z,5.60
2018-12-02T04:15:23.380Z,5.60
2018-12-02T04:17:51.830Z,5.70
2018-12-02T04:20:20.859Z,5.80
2018-12-02T04:22:51.840Z,5.80
2018-12-02T04:25:27.265Z,5.80
2018-12-02T04:27:56.305Z,5.90
2018-12-02T04:30:25.042Z,6.00
2018-12-02T04:32:54.023Z,6.10
2018-12-02T04:35:24.397Z,6.10
2018-12-02T04:37:52.903Z,6.10
2018-12-02T04:40:21.444Z,6.20
2018-12-02T04:42:50.006Z,6.20
2018-12-02T04:45:19.207Z,6.20
2018-12-02T04:47:47.840Z,6.20
2018-12-02T04:50:18.444Z,6.20
2018-12-02T04:52:46.957Z,6.20
2018-12-02T04:55:15.442Z,6.20
2018-12-02T04:57:43.979Z,6.20
2018-12-02T05:00:13.299Z,6.20
2018-12-02T05:02:41.942Z,6.20
2018-12-02T05:05:12.623Z,6.10
2018-12-02T05:07:41.948Z,6.10
2018-12-02T05:10:12.544Z,6.10
2018-12-02T05:12:41.234Z,6.10
2018-12-02T05:15:12.687Z,6.20
2018-12-02T05:17:41.925Z,6.10
2018-12-02T05:20:15.112Z,6.10
2018-12-02T05:22:43.570Z,6.10
2018-12-02T05:25:17.489Z,6.20
2018-12-02T05:27:42.784Z,6.20
2018-12-02T05:30:11.397Z,6.20
2018-12-02T05:32:40.488Z,6.20
2018-12-02T05:35:09.898Z,6.30
2018-12-02T05:37:38.438Z,6.30
2018-12-02T05:40:14.124Z,6.40
2018-12-02T05:42:42.710Z,6.40
2018-12-02T05:45:18.465Z,6.40
2018-12-02T05:47:47.554Z,6.50
2018-12-02T05:50:23.860Z,6.40
2018-12-02T05:52:55.474Z,6.40
2018-12-02T05:55:31.723Z,6.40
2018-12-02T05:58:00.177Z,6.40
2018-12-02T06:00:28.744Z,6.40
2018-12-02T06:02:57.343Z,6.30
2018-12-02T06:05:25.850Z,6.30
2018-12-02T06:07:54.387Z,6.30
2018-12-02T06:10:23.600Z,6.30
2018-12-02T06:12:52.132Z,6.40
2018-12-02T06:15:21.292Z,6.40
2018-12-02T06:17:49.916Z,6.40
2018-12-02T06:20:20.494Z,6.50
2018-12-02T06:22:49.464Z,6.50
2018-12-02T06:25:18.018Z,6.50
2018-12-02T06:27:46.953Z,6.50
2018-12-02T06:30:18.402Z,6.60
2018-12-02T06:32:47.789Z,6.60
2018-12-02T06:35:16.283Z,6.70
2018-12-02T06:37:44.850Z,6.70
2018-12-02T06:40:16.422Z,6.70
2018-12-02T06:42:44.974Z,6.70
2018-12-02T06:45:14.109Z,6.70
2018-12-02T06:47:42.724Z,6.60
2018-12-02T06:50:14.501Z,6.70
2018-12-02T06:52:43.545Z,6.70
2018-12-02T06:55:21.721Z,6.70
2018-12-02T06:57:54.187Z,6.80
2018-12-02T07:00:32.202Z,6.80
2018-12-02T07:03:08.999Z,6.70
2018-12-02T07:05:40.865Z,6.80
2018-12-02T07:08:09.414Z,6.90
2018-12-02T07:10:37.905Z,6.80
2018-12-02T07:13:06.409Z,6.80
2018-12-02T07:15:35.002Z,6.90
2018-12-02T07:18:04.943Z,6.90
2018-12-02T07:20:40.977Z,6.90
2018-12-02T07:23:11.154Z,6.90
2018-12-02T07:25:39.726Z,6.90
2018-12-02T07:28:08.505Z,6.90
2018-12-02T07:30:37.072Z,6.90
2018-12-02T07:33:06.488Z,6.90
2018-12-02T07:35:35.024Z,6.90
2018-12-02T07:38:08.618Z,6.90
2018-12-02T07:40:38.558Z,7.00
2018-12-02T07:43:09.068Z,7.00
2018-12-02T07:45:38.295Z,7.00
2018-12-02T07:48:06.960Z,7.00
2018-12-02T07:50:35.506Z,7.00
2018-12-02T07:53:04.118Z,7.00
2018-12-02T07:55:32.666Z,6.90
2018-12-02T07:58:01.231Z,6.90
2018-12-02T08:00:29.864Z,6.90
2018-12-02T08:02:58.347Z,6.90
2018-12-02T08:05:26.986Z,6.90
2018-12-02T08:07:55.602Z,6.90
2018-12-02T08:10:24.191Z,7.00
2018-12-02T08:12:52.791Z,7.00
2018-12-02T08:15:21.957Z,7.00
2018-12-02T08:17:50.558Z,7.10
2018-12-02T08:20:19.248Z,7.10
2018-12-02T08:22:51.286Z,7.20
2018-12-02T08:25:18.126Z,7.20
2018-12-02T08:27:47.030Z,7.30
2018-12-02T08:30:24.274Z,7.40
2018-12-02T08:32:53.159Z,7.30
2018-12-02T08:35:23.141Z,7.40
2018-12-02T08:37:53.230Z,7.30
2018-12-02T08:40:21.847Z,7.30
2018-12-02T08:42:51.113Z,7.40
2018-12-02T08:45:19.785Z,7.40
2018-12-02T08:47:48.397Z,7.40
2018-12-02T08:50:18.904Z,7.50
2018-12-02T08:52:48.977Z,7.50
2018-12-02T08:55:19.480Z,7.60
2018-12-02T08:57:49.324Z,7.60
2018-12-02T09:00:19.843Z,7.50
2018-12-02T09:02:49.969Z,7.50
2018-12-02T09:05:18.675Z,7.60
2018-12-02T09:07:47.292Z,7.60
2018-12-02T09:10:18.674Z,7.70
2018-12-02T09:12:47.963Z,7.90
2018-12-02T09:15:16.555Z,7.90
2018-12-02T09:17:45.245Z,8.00
2018-12-02T09:20:18.470Z,8.00
2018-12-02T09:22:47.732Z,8.10
2018-12-02T09:25:17.646Z,8.10
2018-12-02T09:27:46.241Z,8.10
2018-12-02T09:30:21.085Z,8.10
2018-12-02T09:32:49.686Z,8.10
2018-12-02T09:35:18.430Z,8.10
2018-12-02T09:37:46.989Z,8.20
2018-12-02T09:40:16.264Z,8.20
2018-12-02T09:42:47.184Z,8.20
2018-12-02T09:45:18.308Z,8.20
2018-12-02T09:47:46.887Z,8.20
2018-12-02T09:50:16.069Z,8.10
2018-12-02T09:52:44.641Z,8.10
2018-12-02T09:55:15.196Z,8.10
2018-12-02T09:57:43.735Z,8.10
2018-12-02T10:00:14.717Z,7.90
2018-12-02T10:02:43.859Z,8.00
2018-12-02T10:05:13.274Z,8.00
2018-12-02T10:07:41.842Z,8.00
2018-12-02T10:10:22.801Z,8.10
2018-12-02T10:12:54.578Z,8.10
2018-12-02T10:15:23.317Z,8.10
2018-12-02T10:17:51.847Z,8.20
2018-12-02T10:20:20.511Z,8.20
2018-12-02T10:22:49.310Z,8.30
2018-12-02T10:25:18.765Z,8.30
2018-12-02T10:27:47.507Z,8.40
2018-12-02T10:30:19.148Z,8.50
2018-12-02T10:32:47.918Z,8.50
2018-12-02T10:35:16.707Z,8.60
2018-12-02T10:37:45.601Z,8.60
2018-12-02T10:40:17.049Z,8.70
2018-12-02T10:42:46.091Z,8.70
2018-12-02T10:45:17.173Z,8.80
2018-12-02T10:47:45.949Z,8.80
2018-12-02T10:50:25.496Z,8.80
2018-12-02T10:52:56.464Z,8.90
2018-12-02T10:55:27.735Z,9.00
2018-12-02T10:57:56.323Z,9.10
2018-12-02T11:00:30.580Z,9.30
2018-12-02T11:03:00.008Z,9.40
2018-12-02T11:05:28.643Z,9.50
2018-12-02T11:07:57.327Z,9.60
2018-12-02T11:10:25.995Z,9.80
2018-12-02T11:12:54.671Z,9.90
2018-12-02T11:15:23.468Z,10.10
2018-12-02T11:17:52.094Z,10.20
2018-12-02T11:20:20.775Z,10.20
2018-12-02T11:22:49.519Z,10.20
2018-12-02T11:25:18.134Z,10.30
2018-12-02T11:27:46.868Z,10.40
2018-12-02T11:30:17.203Z,10.40
2018-12-02T11:32:47.719Z,10.40
2018-12-02T11:35:19.582Z,10.30
2018-12-02T11:37:48.578Z,10.30
2018-12-02T11:40:21.512Z,10.40
2018-12-02T11:42:51.445Z,10.40
2018-12-02T11:45:20.054Z,10.50
2018-12-02T11:47:49.985Z,10.50
2018-12-02T11:50:19.529Z,10.50
2018-12-02T11:52:48.313Z,10.50
2018-12-02T11:55:18.286Z,10.60
2018-12-02T11:57:47.133Z,10.60
2018-12-02T12:00:21.809Z,10.50
2018-12-02T12:02:50.424Z,10.50
2018-12-02T12:05:19.965Z,10.50
2018-12-02T12:07:49.636Z,10.50
2018-12-02T12:10:19.457Z,10.60
2018-12-02T12:12:48.936Z,10.80
2018-12-02T12:15:21.394Z,10.90
2018-12-02T12:17:50.805Z,11.00
2018-12-02T12:20:26.614Z,11.10
2018-12-02T12:22:55.457Z,11.20
2018-12-02T12:25:24.236Z,11.30
2018-12-02T12:27:54.160Z,11.30
2018-12-02T12:30:31.685Z,11.30
2018-12-02T12:33:00.484Z,11.30
2018-12-02T12:35:29.265Z,11.40
2018-12-02T12:37:58.003Z,11.30
2018-12-02T12:40:29.847Z,11.40
2018-12-02T12:43:01.705Z,11.20
2018-12-02T12:45:30.704Z,11.30
2018-12-02T12:47:59.452Z,11.30
2018-12-02T12:50:28.179Z,11.50
2018-12-02T12:52:57.034Z,11.60
2018-12-02T12:55:25.805Z,11.60
2018-12-02T12:57:54.722Z,11.70
2018-12-02T13:00:24.024Z,11.60
2018-12-02T13:02:53.354Z,11.50
2018-12-02T13:05:24.668Z,11.50
2018-12-02T13:07:53.928Z,11.40
2018-12-02T13:10:22.640Z,11.30
2018-12-02T13:12:51.315Z,11.30
2018-12-02T13:15:21.296Z,11.20
2018-12-02T13:17:59.452Z,11.20
2018-12-02T13:20:37.556Z,11.00
2018-12-02T13:23:07.111Z,11.00
2018-12-02T13:25:35.871Z,10.90
2018-12-02T13:28:05.161Z,10.90
2018-12-02T13:30:33.838Z,10.90
2018-12-02T13:33:02.539Z,11.00
2018-12-02T13:35:31.343Z,11.00
2018-12-02T13:38:00.167Z,10.90
2018-12-02T13:40:28.903Z,10.80
2018-12-02T13:43:00.099Z,10.70
2018-12-02T13:45:30.688Z,10.60
2018-12-02T13:47:59.667Z,10.60
2018-12-02T13:50:28.672Z,10.60
2018-12-02T13:52:58.030Z,10.70
2018-12-02T13:55:29.274Z,10.70
2018-12-02T13:57:58.533Z,10.70
2018-12-02T14:00:27.755Z,10.60
2018-12-02T14:02:59.566Z,10.50
2018-12-02T14:05:28.384Z,10.40
2018-12-02T14:07:57.063Z,10.40
2018-12-02T14:10:26.688Z,10.40
2018-12-02T14:13:02.641Z,10.40
2018-12-02T14:15:39.663Z,10.40
2018-12-02T14:18:16.532Z,10.40
2018-12-02T14:20:45.988Z,10.40
2018-12-02T14:23:14.842Z,10.40
2018-12-02T14:25:43.536Z,10.50
2018-12-02T14:28:12.510Z,10.50
2018-12-02T14:30:41.207Z,10.50
2018-12-02T14:33:10.010Z,10.50
2018-12-02T14:35:39.361Z,10.40
2018-12-02T14:38:07.983Z,10.40
2018-12-02T14:40:36.678Z,10.40
2018-12-02T14:43:06.164Z,10.40
2018-12-02T14:45:34.918Z,10.40
2018-12-02T14:48:03.679Z,10.30
2018-12-02T14:50:32.319Z,10.30
2018-12-02T14:53:01.005Z,10.30
2018-12-02T14:55:29.787Z,10.30
2018-12-02T14:57:58.604Z,10.30
2018-12-02T15:00:27.536Z,10.20
2018-12-02T15:02:56.335Z,10.20
2018-12-02T15:05:25.737Z,10.10
2018-12-02T15:07:54.380Z,10.00
2018-12-02T15:10:23.120Z,10.00
2018-12-02T15:12:51.794Z,9.90
2018-12-02T15:15:20.623Z,9.90
2018-12-02T15:17:50.390Z,9.90
2018-12-02T15:20:20.409Z,9.80
2018-12-02T15:22:49.182Z,9.80
2018-12-02T15:25:20.936Z,9.80
2018-12-02T15:27:49.697Z,9.80
2018-12-02T15:30:19.030Z,9.80
2018-12-02T15:32:51.546Z,9.80
2018-12-02T15:35:20.652Z,9.80
2018-12-02T15:37:50.099Z,9.80
2018-12-02T15:40:19.145Z,9.80
2018-12-02T15:42:50.374Z,9.70
2018-12-02T15:45:19.601Z,9.70
2018-12-02T15:47:48.658Z,9.70
2018-12-02T15:50:18.501Z,9.70
2018-12-02T15:52:47.778Z,9.70
2018-12-02T15:55:32.936Z,9.70
2018-12-02T15:58:04.112Z,9.70
2018-12-02T16:00:34.335Z,9.70
2018-12-02T16:03:03.187Z,9.70
2018-12-02T16:05:32.017Z,9.70
2018-12-02T16:08:00.909Z,9.70
2018-12-02T16:10:30.467Z,9.70
2018-12-02T16:12:59.226Z,9.70
2018-12-02T16:15:32.472Z,9.70
2018-12-02T16:18:02.063Z,9.70
2018-12-02T16:20:35.201Z,9.70
2018-12-02T16:23:04.393Z,9.80
2018-12-02T16:25:33.167Z,9.70
2018-12-02T16:28:01.817Z,9.70
2018-12-02T16:30:30.537Z,9.70
2018-12-02T16:32:59.345Z,9.70
2018-12-02T16:35:28.137Z,9.70
2018-12-02T16:37:56.872Z,9.70
2018-12-02T16:40:26.433Z,9.70
2018-12-02T16:42:56.334Z,9.70
2018-12-02T16:45:25.175Z,9.70
2018-12-02T16:47:55.361Z,9.60
2018-12-02T16:50:30.062Z,9.70
2018-12-02T16:53:00.352Z,9.70
2018-12-02T16:55:32.678Z,9.60
2018-12-02T16:58:06.918Z,9.60
2018-12-02T17:00:44.448Z,9.60
2018-12-02T17:03:13.244Z,9.60
2018-12-02T17:05:42.108Z,9.60
2018-12-02T17:08:11.667Z,9.70
2018-12-02T17:10:40.448Z,9.70
2018-12-02T17:13:09.303Z,9.80
2018-12-02T17:15:38.310Z,9.80
2018-12-02T17:18:07.498Z,9.70
2018-12-02T17:20:36.276Z,9.80
2018-12-02T17:23:05.179Z,9.80
2018-12-02T17:25:33.904Z,9.80
2018-12-02T17:28:02.764Z,9.80
2018-12-02T17:30:38.052Z,9.80
2018-12-02T17:33:07.326Z,9.80
2018-12-02T17:35:36.093Z,9.70
2018-12-02T17:38:05.140Z,9.70
2018-12-02T17:40:34.016Z,9.70
2018-12-02T17:43:02.838Z,9.70
2018-12-02T17:45:31.556Z,9.70
2018-12-02T17:48:01.037Z,9.70
2018-12-02T17:50:29.799Z,9.70
2018-12-02T17:52:58.571Z,9.70
2018-12-02T17:55:27.257Z,9.70
2018-12-02T17:57:56.101Z,9.70
2018-12-02T18:00:26.636Z,9.70
2018-12-02T18:02:58.002Z,9.70
2018-12-02T18:05:33.259Z,9.70
2018-12-02T18:08:02.238Z,9.70
2018-12-02T18:10:31.046Z,9.80
2018-12-02T18:13:00.097Z,9.80
2018-12-02T18:15:34.941Z,9.80
2018-12-02T18:18:10.847Z,9.80
2018-12-02T18:20:41.678Z,9.80
2018-12-02T18:23:16.905Z,9.80
2018-12-02T18:25:48.954Z,9.70
2018-12-02T18:30:55.551Z,9.70
2018-12-02T18:33:27.518Z,9.70
2018-12-02T18:36:14.865Z,9.70
2018-12-02T18:41:42.357Z,9.80
2018-12-02T18:44:16.463Z,9.80
2018-12-02T18:47:00.029Z,9.70
2018-12-02T18:49:30.857Z,9.80
2018-12-02T18:52:01.517Z,9.80
2018-12-02T18:54:33.119Z,9.90
2018-12-02T18:57:12.958Z,9.80
2018-12-02T18:59:46.393Z,9.80
2018-12-02T19:02:17.498Z,9.80
2018-12-02T19:04:50.833Z,9.80
2018-12-02T19:07:30.825Z,9.80
2018-12-02T19:10:00.455Z,9.80
2018-12-02T19:12:32.862Z,9.80
2018-12-02T19:15:08.693Z,9.80
2018-12-02T19:17:43.719Z,9.80
2018-12-02T19:20:16.554Z,9.80
2018-12-02T19:22:51.006Z,9.70
2018-12-02T19:25:21.663Z,9.80
2018-12-02T19:27:58.782Z,9.80
2018-12-02T19:30:33.064Z,9.80
2018-12-02T19:33:05.893Z,9.80
2018-12-02T19:35:39.563Z,9.80
2018-12-02T19:38:20.846Z,9.80
2018-12-02T19:40:58.060Z,9.90
2018-12-02T19:43:29.695Z,9.90
2018-12-02T19:45:58.679Z,9.90
2018-12-02T19:48:27.687Z,9.90
2018-12-02T19:50:56.562Z,9.90
2018-12-02T19:53:25.486Z,9.90
2018-12-02T19:55:54.548Z,9.90
2018-12-02T19:58:23.325Z,9.90
2018-12-02T20:00:52.093Z,10.00
2018-12-02T20:03:20.964Z,10.00
2018-12-02T20:05:50.896Z,10.00
2018-12-02T20:08:19.899Z,9.90
2018-12-02T20:10:50.472Z,9.90
2018-12-02T20:13:20.557Z,9.90
2018-12-02T20:15:56.700Z,9.90
2018-12-02T20:18:25.679Z,9.80
2018-12-02T20:20:56.177Z,9.80
2018-12-02T20:23:30.281Z,9.80
2018-12-02T20:26:00.508Z,9.80
2018-12-02T20:28:34.089Z,9.80
2018-12-02T20:31:05.696Z,9.90
2018-12-02T20:33:34.555Z,9.90
2018-12-02T20:36:03.281Z,9.80
2018-12-02T20:38:32.133Z,9.80
2018-12-02T20:41:01.091Z,9.80
2018-12-02T20:43:29.949Z,9.80
2018-12-02T20:45:58.705Z,9.80
2018-12-02T20:48:27.375Z,9.80
2018-12-02T20:50:56.023Z,9.70
2018-12-02T20:53:24.772Z,9.70
2018-12-02T20:55:53.717Z,9.80
2018-12-02T20:58:22.476Z,9.80
2018-12-02T21:00:51.163Z,9.80
2018-12-02T21:03:29.175Z,9.80
2018-12-02T21:06:09.529Z,9.80
2018-12-02T21:08:38.290Z,9.80
2018-12-02T21:11:07.050Z,9.80
2018-12-02T21:13:35.794Z,9.80
2018-12-02T21:16:04.843Z,9.90
2018-12-02T21:18:33.496Z,9.90
2018-12-02T21:21:02.204Z,10.00
2018-12-02T21:23:30.763Z,10.10
2018-12-02T21:25:59.526Z,10.10
2018-12-02T21:28:28.160Z,10.10
2018-12-02T21:30:56.758Z,10.10
2018-12-02T21:33:25.351Z,10.00
2018-12-02T21:35:55.712Z,10.00
2018-12-02T21:38:24.391Z,9.90
2018-12-02T21:40:53.187Z,9.90
2018-12-02T21:43:21.853Z,9.90
2018-12-02T21:45:50.459Z,9.80
2018-12-02T21:48:20.441Z,9.90
2018-12-02T21:50:51.883Z,9.90
2018-12-02T21:53:20.452Z,9.80
2018-12-02T21:55:48.965Z,9.80
2018-12-02T21:58:17.653Z,9.70
2018-12-02T22:00:52.031Z,9.70
2018-12-02T22:03:20.615Z,9.80
2018-12-02T22:05:49.307Z,9.80
2018-12-02T22:08:17.968Z,9.80
2018-12-02T22:10:46.828Z,9.80
2018-12-02T22:13:15.405Z,9.80
2018-12-02T22:15:44.139Z,9.80
2018-12-02T22:18:12.706Z,9.80
2018-12-02T22:20:41.521Z,9.80
2018-12-02T22:23:10.072Z,9.80
2018-12-02T22:25:38.628Z,9.90
2018-12-02T22:28:08.563Z,9.90
2018-12-02T22:30:37.584Z,9.90
2018-12-02T22:33:06.945Z,9.90
2018-12-02T22:35:35.922Z,9.90
2018-12-02T22:38:04.519Z,9.90
2018-12-02T22:40:33.082Z,9.90
2018-12-02T22:43:01.646Z,9.80
2018-12-02T22:45:36.991Z,9.80
2018-12-02T22:48:06.478Z,9.80
2018-12-02T22:50:35.125Z,9.70
2018-12-02T22:53:03.678Z,9.70
2018-12-02T22:55:32.506Z,9.60
2018-12-02T22:58:01.151Z,9.60
2018-12-02T23:00:36.814Z,9.60
2018-12-02T23:03:12.412Z,9.50
2018-12-02T23:05:42.174Z,9.50
2018-12-02T23:08:10.769Z,9.50
2018-12-02T23:10:39.478Z,9.50
2018-12-02T23:13:08.931Z,9.50
2018-12-02T23:15:38.301Z,9.60
2018-12-02T23:18:08.142Z,9.70
2018-12-02T23:20:36.651Z,9.80
2018-12-02T23:23:06.022Z,9.80
2018-12-02T23:25:34.536Z,9.90
2018-12-02T23:28:03.172Z,9.90
2018-12-02T23:30:32.323Z,9.90
2018-12-02T23:33:02.113Z,9.80
2018-12-02T23:35:30.666Z,9.80
2018-12-02T23:37:59.149Z,9.80
2018-12-02T23:40:28.263Z,9.80
2018-12-02T23:42:56.798Z,9.80
2018-12-02T23:45:25.581Z,9.80
2018-12-02T23:47:54.042Z,9.80
2018-12-02T23:50:23.579Z,9.90
2018-12-02T23:52:52.141Z,9.80
2018-12-02T23:55:22.310Z,9.80
2018-12-02T23:57:51.164Z,9.80
